Terminal Aerodrome Forecast
Issued by NWS Wichita, KS

Home | Current Version | Previous Version | Text Only | Print | Product List | Glossary Off
Versions: 1 2 3 4 5 6 7 8 9 10 11 12 13 14 15 16 17 18 19 20

000
FTUS43 KICT 211300 AAA
TAFICT
TAF AMD
KICT 211300Z 2113/2212 27003KT 2SM BR SCT015 OVC080
     FM211500 33005KT P6SM OVC025
     FM211700 35007KT P6SM BKN040
     FM212000 36007KT P6SM SCT050=

USA.gov is the U.S. government's official web portal to all federal, state and local government web resources and services.